Time;durP1;ratioP1;P1;durP2;ratioP2;P2;SDS_P1;SDS_P2;PMS_P1;PMS_P2;Temp;Humidity;BMP_temperature;BMP_pressure;BME280_temperature;BME280_humidity;BME280_pressure;Samples;Min_cycle;Max_cycle;Signal;HPM_P1;HPM_P2
2021/01/14 00:00:48;;;;;;;4.87;3.60;;;3.90;88.50;;;3.82;75.33;97311.47;5062898;28;20052;-49
2021/01/14 00:03:16;;;;;;;5.20;3.50;;;3.80;88.60;;;3.89;74.72;97315.25;5064017;28;20049;-48
2021/01/14 00:05:44;;;;;;;4.23;2.87;;;3.90;88.30;;;3.91;74.77;97321.22;5064007;28;20222;-48
2021/01/14 00:08:12;;;;;;;4.03;3.03;;;3.90;88.00;;;3.80;74.72;97328.34;5064128;28;20051;-48
2021/01/14 00:10:39;;;;;;;3.97;3.23;;;3.80;87.60;;;3.73;74.68;97328.84;5062333;28;20045;-48
2021/01/14 00:13:08;;;;;;;3.87;2.07;;;3.70;88.00;;;3.63;75.07;97329.75;5063663;28;20059;-48
2021/01/14 00:15:37;;;;;;;5.07;3.17;;;3.70;88.00;;;3.63;75.13;97301.63;5063307;28;20040;-47
2021/01/14 00:18:05;;;;;;;4.77;3.00;;;3.70;87.50;;;3.53;73.49;97296.25;5063456;28;20052;-47
2021/01/14 00:20:32;;;;;;;3.30;2.30;;;3.60;85.60;;;3.46;74.03;97297.72;5063359;28;20053;-46
2021/01/14 00:23:00;;;;;;;4.27;3.10;;;3.60;86.20;;;3.47;74.94;97307.31;5063538;28;20053;-47
2021/01/14 00:25:27;;;;;;;5.67;3.90;;;3.50;87.20;;;3.61;74.41;97307.97;5063054;28;20358;-48
2021/01/14 00:27:55;;;;;;;5.10;3.83;;;3.60;87.60;;;3.57;74.34;97314.41;5063654;28;20063;-47
2021/01/14 00:30:29;;;;;;;5.37;3.27;;;3.60;87.20;;;3.62;73.80;97314.88;5063285;28;20041;-47
2021/01/14 00:33:00;;;;;;;3.93;2.60;;;3.60;86.70;;;3.54;73.71;97308.44;5063481;28;20048;-46
2021/01/14 00:35:28;;;;;;;5.23;3.07;;;3.60;85.90;;;3.47;73.96;97296.78;5063006;28;20337;-48
2021/01/14 00:37:56;;;;;;;6.90;3.03;;;3.50;85.50;;;3.51;73.48;97281.56;5063319;28;20067;-48
2021/01/14 00:40:33;;;;;;;4.67;2.80;;;3.50;86.10;;;3.60;73.61;97291.31;5063263;28;20168;-46
2021/01/14 00:43:08;;;;;;;5.00;2.80;;;3.50;86.00;;;3.48;72.97;97306.31;5062846;28;20053;-51
2021/01/14 00:45:36;;;;;;;3.87;2.80;;;3.50;84.80;;;3.36;73.64;97304.69;5062938;28;20045;-46
2021/01/14 00:48:04;;;;;;;3.73;2.40;;;3.50;85.40;;;3.44;73.16;97344.38;5063083;28;20053;-47
2021/01/14 00:50:32;;;;;;;4.17;2.40;;;3.50;85.20;;;3.27;73.92;97352.78;5063165;28;20041;-48
2021/01/14 00:52:59;;;;;;;3.67;2.47;;;3.40;85.90;;;3.34;73.83;97354.81;5062341;28;20377;-48
2021/01/14 00:55:27;;;;;;;4.00;2.60;;;3.40;86.10;;;3.32;74.06;97343.56;5061529;28;20053;-47
2021/01/14 00:57:54;;;;;;;4.10;2.67;;;3.50;86.60;;;3.36;74.12;97344.19;5063004;28;20045;-48
2021/01/14 01:00:23;;;;;;;4.77;3.20;;;3.40;86.50;;;3.44;73.79;97347.00;5054965;28;20049;-47
2021/01/14 01:02:52;;;;;;;4.23;2.97;;;3.50;86.60;;;3.45;73.79;97351.34;5053775;28;20252;-50
2021/01/14 01:05:21;;;;;;;5.03;2.90;;;3.50;86.40;;;3.44;74.11;97354.09;5062361;28;20340;-47
2021/01/14 01:07:55;;;;;;;4.40;3.30;;;3.40;86.70;;;3.47;73.94;97362.56;5062684;28;20056;-49
2021/01/14 01:10:24;;;;;;;4.83;3.30;;;3.40;86.90;;;3.56;73.52;97371.50;5061031;28;20051;-50
2021/01/14 01:12:56;;;;;;;4.87;3.20;;;3.50;86.60;;;3.45;74.23;97368.91;5062328;28;20051;-49
2021/01/14 01:15:25;;;;;;;4.10;2.90;;;3.40;87.00;;;3.45;74.45;97364.50;5062348;28;20041;-48
2021/01/14 01:17:52;;;;;;;5.80;3.70;;;3.40;87.40;;;3.49;74.09;97363.28;5077961;28;20341;-46
2021/01/14 01:20:20;;;;;;;5.33;3.87;;;3.40;87.30;;;3.40;74.44;97345.59;5062496;28;20325;-48
2021/01/14 01:22:47;;;;;;;6.20;3.80;;;3.40;87.60;;;3.49;74.16;97336.97;5062454;28;20127;-48
2021/01/14 01:25:15;;;;;;;7.37;3.30;;;3.40;87.20;;;3.39;74.03;97332.56;5077425;28;20067;-49
2021/01/14 01:27:42;;;;;;;4.73;2.93;;;3.30;87.20;;;3.29;74.00;97354.34;5062614;28;20048;-47
2021/01/14 01:30:10;;;;;;;4.33;2.97;;;3.30;86.90;;;3.36;73.89;97365.22;5062166;28;20059;-47
2021/01/14 01:32:38;;;;;;;6.23;3.20;;;3.30;87.20;;;3.34;73.65;97356.63;5061970;28;20051;-47
2021/01/14 01:35:07;;;;;;;3.83;2.80;;;3.30;86.50;;;3.38;73.69;97342.25;5061830;28;20045;-49
2021/01/14 01:37:34;;;;;;;3.83;2.63;;;3.30;85.70;;;3.44;73.50;97340.94;5058702;28;20242;-47
2021/01/14 01:40:02;;;;;;;4.83;2.80;;;3.30;85.80;;;3.30;73.71;97358.66;5062217;28;20256;-48
2021/01/14 01:42:29;;;;;;;4.40;2.97;;;3.30;85.60;;;3.40;73.15;97369.28;5061972;28;20053;-48
2021/01/14 01:45:00;;;;;;;3.93;3.00;;;3.30;85.40;;;3.46;73.17;97371.41;5061636;28;20060;-46
2021/01/14 01:47:33;;;;;;;8.83;3.93;;;3.40;85.40;;;3.39;73.35;97364.97;5062034;28;20249;-46
2021/01/14 01:50:06;;;;;;;4.77;3.00;;;3.40;85.20;;;3.27;72.71;97365.94;5062046;28;20048;-47
2021/01/14 01:52:34;;;;;;;4.30;2.30;;;3.30;84.80;;;3.16;73.25;97364.19;5061055;28;20345;-47
2021/01/14 01:55:04;;;;;;;5.83;2.70;;;3.20;84.90;;;3.14;73.25;97364.31;5061408;28;20074;-47
2021/01/14 01:57:34;;;;;;;3.97;2.33;;;3.10;85.30;;;3.27;72.95;97363.31;5061426;28;20045;-49
2021/01/14 02:00:04;;;;;;;4.63;2.50;;;3.20;84.90;;;3.28;72.64;97375.53;5061867;28;20045;-47
2021/01/14 02:02:32;;;;;;;3.53;1.93;;;3.20;84.10;;;3.17;72.56;97388.69;5061302;28;20045;-46
2021/01/14 02:05:00;;;;;;;4.23;2.43;;;3.10;84.50;;;3.30;72.42;97389.41;5076776;28;20049;-48
2021/01/14 02:07:36;;;;;;;4.10;2.30;;;3.10;84.10;;;3.08;71.98;97367.44;5061599;28;20048;-47
2021/01/14 02:10:24;;;;;;;2.77;2.10;;;3.00;83.80;;;3.27;72.49;97373.84;5060258;28;20082;-48
2021/01/14 02:13:33;;;;;;;5.20;3.13;;;3.00;84.60;;;3.17;72.59;97386.91;5075114;28;20055;-47
2021/01/14 02:16:03;;;;;;;3.37;2.40;;;2.90;84.30;;;3.19;72.07;97395.50;5060827;28;20370;-47
2021/01/14 02:18:30;;;;;;;3.70;2.13;;;3.00;84.30;;;3.17;72.30;97380.81;5076099;28;20371;-48
2021/01/14 02:21:14;;;;;;;4.63;2.60;;;3.00;84.00;;;3.23;72.25;97380.31;5077076;28;20052;-48
2021/01/14 02:24:01;;;;;;;2.40;1.70;;;3.00;84.00;;;2.84;71.57;97388.56;5076689;28;20076;-48
2021/01/14 02:26:30;;;;;;;2.57;1.80;;;2.70;84.40;;;2.67;72.30;97391.69;5076377;28;20053;-48
2021/01/14 02:28:59;;;;;;;2.10;1.40;;;2.50;84.30;;;2.78;71.98;97396.13;5076941;28;20249;-49
2021/01/14 02:31:27;;;;;;;2.30;1.57;;;2.60;83.90;;;2.78;71.58;97409.25;5075031;28;20059;-47
2021/01/14 02:33:56;;;;;;;2.17;1.50;;;2.60;83.70;;;2.61;72.07;97419.25;5061446;28;20067;-48
2021/01/14 02:36:26;;;;;;;2.77;1.50;;;2.50;83.50;;;2.79;71.89;97413.56;5060365;28;20087;-47
2021/01/14 02:38:54;;;;;;;2.87;1.97;;;2.60;83.50;;;2.66;71.42;97426.81;5076974;28;20363;-49
2021/01/14 02:41:22;;;;;;;3.60;1.77;;;2.50;82.90;;;2.64;71.45;97412.94;5060981;28;20061;-46
2021/01/14 02:43:50;;;;;;;2.87;2.00;;;2.40;83.60;;;2.72;71.89;97408.78;5061255;28;20055;-49
2021/01/14 02:46:20;;;;;;;4.00;2.07;;;2.40;83.70;;;2.64;71.34;97416.41;5061354;28;20053;-46
2021/01/14 02:49:05;;;;;;;2.70;1.60;;;2.40;83.50;;;2.70;71.57;97412.47;5060836;28;20049;-49
2021/01/14 02:51:42;;;;;;;2.53;1.40;;;2.40;84.10;;;2.59;71.57;97413.28;5075564;28;20041;-46
2021/01/14 02:54:12;;;;;;;1.70;1.23;;;2.40;84.00;;;2.44;72.71;97402.13;5061440;28;20049;-47
2021/01/14 02:56:41;;;;;;;2.70;1.40;;;2.30;84.40;;;2.40;72.03;97405.94;5075889;28;20045;-47
2021/01/14 02:59:12;;;;;;;2.17;1.50;;;2.30;84.20;;;2.51;72.27;97413.03;5076319;28;20057;-46
2021/01/14 03:01:40;;;;;;;2.93;1.53;;;2.30;84.50;;;2.50;71.86;97416.59;5068203;28;20056;-48
2021/01/14 03:04:10;;;;;;;3.33;2.10;;;2.30;83.80;;;2.54;71.77;97418.06;5049885;28;20042;-46
2021/01/14 03:06:38;;;;;;;2.93;2.00;;;2.40;84.20;;;2.43;71.91;97433.81;5049213;28;20337;-46
2021/01/14 03:09:05;;;;;;;3.67;2.50;;;2.30;84.00;;;2.58;71.99;97426.53;5050446;28;20075;-46
2021/01/14 03:11:34;;;;;;;3.77;1.97;;;2.30;84.30;;;2.60;71.49;97420.22;5051400;28;20241;-46
2021/01/14 03:14:02;;;;;;;3.00;1.90;;;2.40;83.60;;;2.50;71.50;97427.97;5050099;28;20052;-47
2021/01/14 03:16:36;;;;;;;3.57;1.67;;;2.30;83.90;;;2.58;72.00;97426.53;5054759;28;20057;-46
2021/01/14 03:19:03;;;;;;;3.97;1.92;;;2.40;84.10;;;2.64;72.38;97428.72;5053674;28;20072;-48
2021/01/14 03:21:31;;;;;;;3.17;2.13;;;2.40;84.20;;;2.64;71.81;97428.72;5059945;28;20269;-46
2021/01/14 03:23:59;;;;;;;3.97;2.00;;;2.40;83.40;;;2.68;71.83;97423.09;5044639;28;20045;-47
2021/01/14 03:26:26;;;;;;;4.23;2.17;;;2.40;83.60;;;2.65;71.93;97425.97;5044994;28;20345;-48
2021/01/14 03:28:53;;;;;;;3.17;1.90;;;2.40;83.50;;;2.70;71.45;97425.63;5044662;28;20050;-46
2021/01/14 03:31:21;;;;;;;4.13;2.67;;;2.40;83.40;;;2.68;71.13;97430.16;5044568;28;20049;-47
2021/01/14 03:33:49;;;;;;;2.17;1.70;;;2.40;83.70;;;2.56;71.90;97440.66;5044967;28;20049;-47
2021/01/14 03:36:18;;;;;;;4.53;2.40;;;2.40;84.00;;;2.43;71.98;97446.94;5044197;28;20067;-46
2021/01/14 03:38:47;;;;;;;3.37;1.90;;;2.20;84.70;;;2.53;71.65;97440.03;5044494;28;20052;-49
2021/01/14 03:41:18;;;;;;;4.73;2.00;;;2.30;85.00;;;2.45;72.30;97438.00;5044433;28;20053;-50
2021/01/14 03:43:46;;;;;;;3.77;1.97;;;2.20;85.00;;;2.36;71.97;97429.03;5045269;28;20053;-49
2021/01/14 03:46:20;;;;;;;3.20;2.07;;;2.20;85.10;;;2.48;72.58;97429.88;5043764;28;20080;-47
2021/01/14 03:48:49;;;;;;;2.92;2.17;;;2.20;86.20;;;2.52;71.93;97433.09;5044442;28;20221;-48
2021/01/14 03:51:22;;;;;;;3.07;2.20;;;2.20;85.10;;;2.53;72.26;97445.28;5044608;28;20055;-47
2021/01/14 03:53:51;;;;;;;3.73;2.40;;;2.30;85.30;;;2.35;72.26;97448.34;5044305;28;20050;-45
2021/01/14 03:56:19;;;;;;;3.97;2.67;;;2.10;85.80;;;2.37;72.19;97456.13;5043741;28;20379;-47
2021/01/14 03:58:46;;;;;;;4.43;2.33;;;2.10;86.00;;;2.23;73.22;97449.28;5044194;28;20079;-50
2021/01/14 04:01:14;;;;;;;3.90;2.33;;;2.00;86.40;;;2.22;72.75;97446.75;5044228;28;20049;-46
2021/01/14 04:03:43;;;;;;;4.43;2.33;;;1.90;86.80;;;2.15;73.64;97441.97;5059395;28;20049;-48
2021/01/14 04:06:11;;;;;;;3.87;2.13;;;1.90;87.20;;;2.15;73.05;97452.47;5042251;28;20055;-47
2021/01/14 04:08:39;;;;;;;4.53;2.77;;;1.90;86.80;;;2.10;73.65;97459.00;5044085;28;20056;-46
2021/01/14 04:11:09;;;;;;;6.57;3.10;;;1.90;87.30;;;2.05;73.37;97443.56;5044113;28;20050;-48
2021/01/14 04:13:37;;;;;;;4.67;2.87;;;1.80;87.80;;;2.17;72.88;97458.44;5043926;28;20041;-47
2021/01/14 04:16:11;;;;;;;4.73;2.50;;;1.90;87.30;;;2.16;73.41;97450.66;5043273;28;20039;-47
2021/01/14 04:18:39;;;;;;;6.78;3.13;;;1.90;87.10;;;1.90;74.18;97458.69;5058428;28;20049;-47
2021/01/14 04:21:06;;;;;;;4.43;2.97;;;1.70;88.10;;;1.98;73.51;97463.38;5043731;28;20037;-48
2021/01/14 04:23:33;;;;;;;4.90;2.77;;;1.70;88.00;;;1.91;73.94;97468.22;5043819;28;20225;-46
2021/01/14 04:26:00;;;;;;;4.40;2.67;;;1.70;88.40;;;1.99;74.26;97472.09;5043053;28;20053;-46
2021/01/14 04:28:28;;;;;;;5.97;3.37;;;1.70;88.00;;;2.03;73.35;97477.00;5043290;28;20059;-47
2021/01/14 04:30:55;;;;;;;4.50;2.57;;;1.80;88.10;;;1.81;74.17;97477.72;5043347;28;20056;-49
2021/01/14 04:33:22;;;;;;;6.27;2.93;;;1.60;88.70;;;1.75;74.91;97472.91;5043486;28;20049;-48
2021/01/14 04:35:58;;;;;;;5.67;4.03;;;1.60;89.10;;;1.92;74.43;97483.03;5043560;28;20361;-47
2021/01/14 04:38:27;;;;;;;5.80;2.53;;;1.60;88.60;;;1.89;74.49;97485.88;5041486;28;20249;-46
2021/01/14 04:40:59;;;;;;;5.07;3.40;;;1.60;88.50;;;1.95;73.70;97481.97;5043831;28;20056;-47
2021/01/14 04:43:37;;;;;;;5.93;3.30;;;1.70;88.70;;;1.77;74.35;97471.84;5043220;28;20074;-49
2021/01/14 04:46:08;;;;;;;7.37;3.53;;;1.60;89.30;;;1.93;73.59;97479.44;5041349;28;20045;-46
2021/01/14 04:48:40;;;;;;;6.07;3.53;;;1.60;88.90;;;1.91;74.36;97476.09;5043147;28;20046;-47
2021/01/14 04:51:19;;;;;;;5.10;3.17;;;1.70;88.70;;;2.00;73.84;97477.22;5043268;28;20091;-46
2021/01/14 04:53:50;;;;;;;9.13;4.77;;;1.70;88.60;;;2.06;73.68;97487.28;5043475;28;20049;-48
2021/01/14 04:56:21;;;;;;;6.30;3.60;;;1.70;88.60;;;2.05;73.13;97480.34;5042573;28;20241;-47
2021/01/14 04:58:49;;;;;;;5.40;3.93;;;1.70;88.40;;;2.06;73.68;97478.56;5043559;28;20053;-47
2021/01/14 05:01:23;;;;;;;7.17;3.47;;;1.70;88.40;;;2.07;73.75;97485.47;5042914;28;20051;-49
2021/01/14 05:03:52;;;;;;;;;;;1.70;88.30;;;1.94;74.05;97478.50;5043429;28;20055;-50
2021/01/14 05:06:21;;;;;;;5.67;3.17;;;1.60;88.80;;;1.95;74.18;97489.84;5041125;28;19921;-46
2021/01/14 05:09:01;;;;;;;6.33;4.17;;;1.50;89.10;;;1.91;74.06;97489.22;5042496;28;20059;-47
2021/01/14 05:11:36;;;;;;;7.60;3.33;;;1.50;89.50;;;1.77;74.23;97492.84;5057356;28;20052;-48
2021/01/14 05:14:04;;;;;;;4.53;3.37;;;1.50;89.60;;;1.86;74.16;97498.38;5057067;28;20083;-47
2021/01/14 05:16:31;;;;;;;5.20;3.60;;;1.50;89.50;;;1.96;73.21;97491.53;5042508;28;20075;-47
2021/01/14 05:18:59;;;;;;;7.60;3.73;;;1.60;89.30;;;2.01;73.69;97497.28;5042558;28;20037;-48
2021/01/14 05:21:34;;;;;;;6.47;3.57;;;1.60;88.70;;;2.05;73.68;97506.59;5058005;28;20055;-46
2021/01/14 05:24:15;;;;;;;5.60;3.73;;;1.60;88.60;;;2.06;73.23;97510.09;5058015;28;20053;-46
2021/01/14 05:26:44;;;;;;;7.60;4.17;;;1.70;88.70;;;1.95;73.89;97513.47;5057394;28;20045;-46
2021/01/14 05:29:17;;;;;;;6.73;3.63;;;1.60;89.10;;;2.04;73.34;97518.06;5042945;28;20045;-47
2021/01/14 05:31:47;;;;;;;7.50;4.30;;;1.60;88.80;;;2.03;73.73;97532.13;5055984;22;20348;-43
2021/01/14 05:34:15;;;;;;;7.10;4.60;;;1.60;88.80;;;2.08;73.79;97530.03;5042091;28;20045;-42
2021/01/14 05:37:05;;;;;;;8.50;4.73;;;1.70;88.80;;;1.93;73.55;97545.09;5057217;28;20052;-42
2021/01/14 05:39:42;;;;;;;6.37;3.70;;;1.50;89.30;;;1.89;73.59;97535.75;5042123;28;20234;-42
2021/01/14 05:42:11;;;;;;;5.83;3.80;;;1.50;89.60;;;1.96;73.30;97533.53;5042125;28;20345;-42
2021/01/14 05:44:42;;;;;;;7.60;4.67;;;1.60;89.30;;;2.06;73.45;97541.59;5056637;28;20057;-43
2021/01/14 05:47:26;;;;;;;5.63;4.13;;;1.60;89.00;;;2.14;73.57;97526.94;5042041;28;20055;-42
2021/01/14 05:50:19;;;;;;;7.20;4.22;;;1.80;88.60;;;2.09;73.99;97533.47;5042555;28;20064;-44
2021/01/14 05:52:47;;;;;;;8.03;3.70;;;1.70;88.40;;;2.19;73.36;97539.75;5041739;28;20049;-43
2021/01/14 05:55:17;;;;;;;8.13;5.37;;;1.80;88.30;;;2.10;73.39;97536.00;5056748;28;20063;-42
2021/01/14 05:58:02;;;;;;;8.90;4.50;;;1.70;88.30;;;2.06;73.09;97533.72;5057378;28;20045;-42
2021/01/14 06:00:35;;;;;;;6.53;4.13;;;1.60;89.10;;;2.03;73.39;97540.00;5057049;28;20047;-42
2021/01/14 06:03:23;;;;;;;6.05;4.00;;;1.70;88.90;;;2.02;73.55;97554.09;5041876;28;20055;-43
2021/01/14 06:05:52;;;;;;;7.30;4.10;;;1.60;88.80;;;1.97;73.32;97537.81;5040251;28;20272;-43
2021/01/14 06:08:26;;;;;;;7.33;4.37;;;1.60;89.20;;;1.86;74.81;97545.63;5057071;28;20037;-43
2021/01/14 06:10:55;;;;;;;5.70;3.73;;;1.50;89.60;;;1.84;73.73;97542.28;5041478;28;20054;-42
2021/01/14 06:13:43;;;;;;;9.97;4.27;;;1.40;89.80;;;1.92;73.05;97540.78;5041478;28;20051;-43
2021/01/14 06:16:11;;;;;;;7.53;4.33;;;1.50;90.00;;;1.66;75.15;97528.69;5041278;28;20041;-42
2021/01/14 06:18:38;;;;;;;8.57;4.37;;;1.40;90.30;;;1.76;74.10;97537.56;5041764;28;20045;-42
2021/01/14 06:21:06;;;;;;;8.10;5.20;;;1.40;90.10;;;1.75;74.32;97546.41;5041589;28;20046;-41
2021/01/14 06:23:47;;;;;;;5.83;3.90;;;1.40;90.20;;;1.69;75.25;97550.31;5039932;28;20065;-42
2021/01/14 06:26:40;;;;;;;9.93;4.37;;;1.40;90.30;;;1.54;75.62;97552.22;5040636;28;20057;-43
2021/01/14 06:29:17;;;;;;;7.13;4.30;;;1.30;90.80;;;1.60;75.14;97552.72;5039638;28;20080;-42
2021/01/14 06:31:44;;;;;;;8.50;3.80;;;1.30;90.70;;;1.58;75.34;97566.78;5055186;28;20056;-41
2021/01/14 06:34:16;;;;;;;6.70;4.67;;;1.30;91.00;;;1.65;74.83;97575.09;5056609;28;20048;-43
2021/01/14 06:36:47;;;;;;;6.90;5.00;;;1.40;90.70;;;1.71;74.77;97573.81;5056367;28;20041;-42
2021/01/14 06:39:18;;;;;;;6.33;4.60;;;1.40;90.50;;;1.73;74.52;97572.75;5056601;28;20045;-43
2021/01/14 06:41:46;;;;;;;8.67;5.10;;;1.50;89.80;;;1.77;74.92;97576.84;5041470;28;20053;-42
2021/01/14 06:44:15;;;;;;;6.83;4.73;;;1.50;89.60;;;1.73;74.38;97585.88;5056045;28;20056;-42
2021/01/14 06:46:42;;;;;;;11.57;5.03;;;1.50;89.50;;;1.77;74.19;97578.63;5040931;28;20368;-46
2021/01/14 06:49:15;;;;;;;11.97;5.80;;;1.50;89.60;;;1.83;74.55;97575.56;5041348;28;20053;-47
2021/01/14 06:52:01;;;;;;;7.20;4.70;;;1.50;89.30;;;1.84;74.18;97589.53;5045313;28;20345;-49
2021/01/14 06:54:39;;;;;;;7.00;4.33;;;1.50;89.00;;;1.68;75.08;97593.22;5045260;28;20045;-47
2021/01/14 06:57:15;;;;;;;7.53;4.90;;;1.50;89.70;;;1.73;74.46;97592.94;5045125;28;20045;-48
2021/01/14 06:59:43;;;;;;;7.53;4.33;;;1.40;89.60;;;1.82;74.10;97594.88;5045086;28;20268;-47
2021/01/14 07:02:30;;;;;;;7.97;4.97;;;1.50;89.60;;;1.71;74.36;97582.53;5060266;28;20064;-50
2021/01/14 07:05:10;;;;;;;7.43;5.17;;;1.40;89.70;;;1.71;74.45;97577.28;5044723;28;20055;-48
2021/01/14 07:07:57;;;;;;;8.83;5.10;;;1.40;90.70;;;1.78;73.82;97593.41;5044965;28;20049;-49
2021/01/14 07:10:29;;;;;;;9.80;5.33;;;1.50;89.70;;;1.82;74.22;97604.56;5045183;28;20080;-46
2021/01/14 07:13:02;;;;;;;9.50;5.50;;;1.50;89.10;;;1.67;74.71;97607.31;5044549;28;20049;-51
2021/01/14 07:15:34;;;;;;;8.77;5.60;;;1.40;89.70;;;1.79;74.40;97597.75;5059106;28;20045;-47
2021/01/14 07:18:03;;;;;;;8.23;5.70;;;1.50;89.60;;;1.83;74.15;97593.94;5059402;28;20052;-47
2021/01/14 07:20:31;;;;;;;9.23;6.30;;;1.50;89.30;;;1.89;74.29;97593.50;5044873;28;20037;-49
2021/01/14 07:23:01;;;;;;;9.83;6.13;;;1.60;89.10;;;1.83;74.16;97595.75;5060283;28;20049;-48
2021/01/14 07:25:30;;;;;;;9.43;6.20;;;1.50;89.00;;;1.70;74.74;97601.84;5044279;28;20376;-46
2021/01/14 07:27:57;;;;;;;11.90;6.50;;;1.50;89.60;;;1.64;74.46;97602.25;5059820;28;20054;-49
2021/01/14 07:30:25;;;;;;;7.90;5.73;;;1.40;89.90;;;1.57;74.90;97599.25;5060102;28;20104;-47
2021/01/14 07:33:04;;;;;;;12.17;6.80;;;1.40;90.00;;;1.68;74.43;97605.53;5059484;28;20049;-48
2021/01/14 07:35:47;;;;;;;10.30;6.30;;;1.40;89.90;;;1.61;74.75;97618.25;5043622;28;20053;-48
2021/01/14 07:38:18;;;;;;;10.33;6.13;;;1.40;89.70;;;1.61;74.95;97620.88;5042867;28;20237;-48
2021/01/14 07:41:00;;;;;;;10.67;6.43;;;1.40;89.80;;;1.61;75.07;97630.50;5045838;28;20048;-46
2021/01/14 07:43:32;;;;;;;10.57;6.30;;;1.40;90.10;;;1.62;75.48;97625.16;5040720;28;20049;-46
2021/01/14 07:46:15;;;;;;;10.77;6.97;;;1.40;89.90;;;1.66;74.89;97641.53;5023895;28;20054;-48
2021/01/14 07:48:43;;;;;;;9.80;5.83;;;1.40;89.80;;;1.65;74.59;97640.69;5039720;28;20052;-46
2021/01/14 07:51:11;;;;;;;10.93;6.37;;;1.40;89.80;;;1.55;75.03;97642.25;5024251;28;20068;-46
2021/01/14 07:53:38;;;;;;;10.07;5.73;;;1.30;89.90;;;1.71;74.43;97640.28;5039717;28;20113;-47
2021/01/14 07:56:26;;;;;;;12.33;6.17;;;1.40;89.90;;;1.71;74.43;97635.03;5039097;28;20052;-49
2021/01/14 07:58:58;;;;;;;11.20;6.33;;;1.40;89.50;;;1.72;74.32;97639.31;5024450;28;20046;-45
2021/01/14 08:01:25;;;;;;;13.60;6.57;;;1.40;89.60;;;1.53;74.83;97631.88;5023811;28;20052;-45
2021/01/14 08:03:52;;;;;;;7.90;6.00;;;1.30;89.30;;;1.71;74.73;97632.41;5024334;28;20057;-48
2021/01/14 08:06:42;;;;;;;11.57;6.53;;;1.40;89.40;;;1.76;73.87;97637.31;5038943;28;20060;-47
2021/01/14 08:09:10;;;;;;;11.43;6.03;;;1.40;88.90;;;1.83;74.48;97648.25;5024115;28;20076;-46
2021/01/14 08:11:47;;;;;;;11.73;6.47;;;1.50;88.80;;;1.74;74.51;97650.53;5023906;28;20049;-46
2021/01/14 08:14:40;;;;;;;11.47;6.20;;;1.40;88.60;;;1.68;73.67;97647.50;5023803;28;20234;-45
2021/01/14 08:17:24;;;;;;;10.83;6.23;;;1.40;88.50;;;1.72;73.90;97641.94;5022100;28;20058;-46
2021/01/14 08:19:52;;;;;;;12.77;6.50;;;1.40;89.10;;;1.71;73.66;97647.31;5024003;28;20050;-47
2021/01/14 08:22:21;;;;;;;8.30;5.53;;;1.40;88.80;;;1.61;73.94;97652.34;5023788;28;20046;-46
2021/01/14 08:24:59;;;;;;;12.77;6.93;;;1.30;89.00;;;1.70;74.14;97651.69;5023542;28;20116;-47
2021/01/14 08:27:32;;;;;;;11.70;7.13;;;1.40;89.10;;;1.73;74.43;97658.53;5028923;28;20075;-48
2021/01/14 08:30:06;;;;;;;10.87;7.30;;;1.40;89.10;;;1.70;74.70;97651.69;5043678;28;20050;-49
2021/01/14 08:32:36;;;;;;;10.63;6.27;;;1.40;89.20;;;1.74;73.98;97649.72;5043389;28;20057;-45
2021/01/14 08:35:30;;;;;;;9.60;6.23;;;1.50;88.90;;;1.65;74.56;97661.69;5039911;28;20041;-45
2021/01/14 08:38:01;;;;;;;9.90;5.97;;;1.40;89.60;;;1.60;75.28;97666.41;5037556;28;20045;-47
2021/01/14 08:40:35;;;;;;;10.87;6.17;;;1.30;90.10;;;1.62;75.29;97672.38;5043213;28;20104;-45
2021/01/14 08:43:11;;;;;;;8.97;5.63;;;1.30;90.00;;;1.60;74.72;97681.31;5064337;28;20067;-45
2021/01/14 08:45:55;;;;;;;11.40;5.90;;;1.30;90.00;;;1.76;74.26;97676.69;5049540;28;20344;-48
2021/01/14 08:48:28;;;;;;;9.70;6.20;;;1.50;89.90;;;1.84;74.65;97679.66;5045585;28;20047;-41
2021/01/14 08:50:55;;;;;;;11.60;5.93;;;1.50;89.30;;;1.90;74.58;97684.47;5043188;28;20244;-40
2021/01/14 08:53:28;;;;;;;10.37;6.23;;;1.60;88.90;;;1.76;74.72;97685.44;5042972;28;20341;-40
2021/01/14 08:56:02;;;;;;;10.70;6.03;;;1.50;88.90;;;1.77;74.24;97694.97;5057503;28;20051;-40
2021/01/14 08:58:47;;;;;;;10.57;5.80;;;1.50;89.40;;;1.57;75.64;97700.72;5042876;28;20045;-40
2021/01/14 09:01:23;;;;;;;12.37;6.23;;;1.40;89.80;;;1.66;74.84;97699.28;5058159;28;20048;-40
2021/01/14 09:03:54;;;;;;;9.93;6.40;;;1.40;90.10;;;1.73;75.03;97700.53;5054759;28;20041;-40
2021/01/14 09:06:38;;;;;;;9.93;6.03;;;1.50;89.80;;;1.72;75.24;97686.56;5044467;28;20250;-40
2021/01/14 09:09:07;;;;;;;;;;;1.50;89.90;;;1.77;74.16;97694.97;5043203;28;20241;-40
2021/01/14 09:11:36;;;;;;;10.23;6.03;;;1.50;90.40;;;1.86;74.52;97698.75;5041501;28;19917;-41
2021/01/14 09:14:12;;;;;;;9.53;6.60;;;1.50;89.90;;;1.95;74.58;97705.97;5056545;28;20053;-40
2021/01/14 09:16:42;;;;;;;10.73;6.97;;;1.60;89.30;;;1.86;75.20;97708.41;5036971;28;20333;-41
2021/01/14 09:19:25;;;;;;;9.90;6.27;;;1.50;89.60;;;1.91;74.82;97707.13;5041563;28;20044;-40
2021/01/14 09:21:52;;;;;;;8.90;5.67;;;1.60;89.50;;;1.83;74.91;97709.47;5042572;28;20363;-41
2021/01/14 09:24:20;;;;;;;11.50;7.63;;;1.50;88.90;;;1.92;74.46;97714.09;5043295;28;20049;-41
2021/01/14 09:26:51;;;;;;;12.00;5.90;;;1.60;89.00;;;1.94;74.02;97709.56;5055565;28;20067;-40
2021/01/14 09:29:20;;;;;;;13.53;7.93;;;1.60;88.60;;;2.05;73.87;97727.19;5039386;28;20067;-41
2021/01/14 09:31:48;;;;;;;10.73;6.53;;;1.70;88.60;;;2.08;73.64;97740.13;5040639;28;20063;-40
2021/01/14 09:34:15;;;;;;;9.27;6.60;;;1.70;88.40;;;2.12;73.76;97740.75;5054273;28;20264;-41
2021/01/14 09:36:42;;;;;;;9.87;5.87;;;1.70;88.00;;;2.11;73.73;97752.19;5032837;28;20053;-41
2021/01/14 09:39:15;;;;;;;10.60;5.70;;;1.70;88.30;;;2.03;73.23;97744.84;5043088;28;20060;-41
2021/01/14 09:41:43;;;;;;;10.37;5.87;;;1.70;86.90;;;1.97;73.54;97763.66;5036532;28;20252;-41
2021/01/14 09:44:13;;;;;;;8.80;5.20;;;1.60;87.80;;;2.06;74.09;97765.66;5041111;28;20057;-41
2021/01/14 09:46:46;;;;;;;7.53;4.90;;;1.70;88.00;;;2.06;73.28;97760.41;5043124;28;20060;-41
2021/01/14 09:49:15;;;;;;;8.73;4.60;;;1.70;85.70;;;2.04;73.47;97764.09;5061445;28;20045;-41
2021/01/14 09:51:45;;;;;;;7.03;4.47;;;1.70;86.20;;;2.00;73.02;97763.47;5061795;28;20056;-41
2021/01/14 09:54:13;;;;;;;8.07;5.13;;;1.60;86.10;;;1.98;73.19;97757.47;5060963;28;20047;-40
2021/01/14 09:56:52;;;;;;;8.10;6.40;;;1.60;87.10;;;2.02;73.23;97772.06;5060483;28;20053;-41
2021/01/14 09:59:40;;;;;;;7.60;4.37;;;1.60;87.40;;;1.92;73.80;97766.59;5076347;28;20240;-40
2021/01/14 10:02:24;;;;;;;7.07;4.50;;;1.50;86.80;;;1.93;72.95;97775.31;5060636;28;20045;-41
2021/01/14 10:05:01;;;;;;;9.52;4.13;;;1.50;86.70;;;1.94;72.98;97764.72;5060410;28;20048;-41
2021/01/14 10:07:33;;;;;;;6.13;3.93;;;1.60;86.80;;;1.99;73.03;97768.81;5076162;28;20049;-43
2021/01/14 10:10:01;;;;;;;7.67;4.80;;;1.60;87.10;;;1.98;73.01;97775.84;5075082;28;20044;-41
2021/01/14 10:12:32;;;;;;;6.60;3.97;;;1.60;87.30;;;2.04;73.53;97778.06;5076706;28;20051;-44
2021/01/14 10:15:12;;;;;;;10.00;4.90;;;1.60;86.60;;;2.04;73.36;97772.81;5075557;28;20049;-44
2021/01/14 10:17:42;;;;;;;8.63;5.60;;;1.60;86.70;;;1.98;73.21;97770.59;5060351;28;20059;-42
2021/01/14 10:20:12;;;;;;;11.17;6.70;;;1.60;87.20;;;2.05;73.07;97774.47;5059434;28;20049;-42
2021/01/14 10:22:52;;;;;;;7.70;4.33;;;1.70;87.00;;;1.92;72.49;97773.63;5059642;28;20232;-43
2021/01/14 10:25:21;;;;;;;9.93;4.90;;;1.70;85.50;;;1.92;73.43;97769.22;5062322;28;20060;-43
2021/01/14 10:28:03;;;;;;;6.87;4.50;;;1.50;86.50;;;1.87;72.67;97770.47;5053208;28;20075;-42
2021/01/14 10:30:31;;;;;;;9.47;5.20;;;1.60;86.10;;;1.99;72.74;97774.06;5039609;28;20045;-42
2021/01/14 10:33:04;;;;;;;7.47;5.43;;;1.60;86.10;;;2.01;72.63;97774.78;5044740;28;20452;-42
2021/01/14 10:35:35;;;;;;;6.97;4.73;;;1.70;85.90;;;1.96;72.58;97775.94;5044308;28;20225;-42
2021/01/14 10:38:11;;;;;;;8.07;5.43;;;1.60;85.90;;;1.96;72.91;97778.56;5044353;28;20056;-42
2021/01/14 10:40:45;;;;;;;8.87;4.40;;;1.60;86.10;;;1.78;72.44;97764.06;5033067;28;20054;-41
2021/01/14 10:43:37;;;;;;;10.33;4.47;;;1.50;85.20;;;1.84;72.41;97771.53;5025098;28;20350;-42
2021/01/14 10:46:05;;;;;;;30.00;14.47;;;1.50;85.50;;;1.73;72.50;97793.25;5038642;28;20038;-43
2021/01/14 10:48:37;;;;;;;27.07;13.97;;;1.40;86.20;;;1.85;73.31;97809.13;5057643;28;20052;-42
2021/01/14 10:51:06;;;;;;;23.75;14.25;;;1.50;86.50;;;1.71;73.25;97808.25;5064788;28;20061;-42
2021/01/14 10:53:41;;;;;;;22.97;14.07;;;1.40;85.60;;;1.81;73.25;97811.13;5064036;28;20040;-42